Guaraquecaba, Brazil
Current Conditions -  °F | °C
As of 12:00 AM on Saturday 22 Nov 2014 (Local Time) from SBCT Reporting Station
Scattered Clouds Scattered Clouds  
Wind Chill: 68°   Ceiling: Unl
Heat Index: 68°   Visibility: 6mi
Dew Point: 64°   Wind: 5mph
Humidity: 88%   Direction: 20°NNE
Pressure: 30.03"   Gusts: NA
Location:  25.31°S, 48.33°W
Report Text: SBCT 220200Z 02004KT 9999 SCT005 20/18 Q1017
Loading
Personal Weather Stations






























Interactive Weather Map New forecast layout! Learn more

10-Day Weather Forecast

Advertisements
Track Severe Weather on mobile